Forside
METAR-TAF:

METAR-TAF

Lufthavne :

Seattle-Tacoma International Airport

Seattle / Tacoma, Washington, USA

Breddekreds: 47-26-41N, længdekreds: 122-18-49W, højde: 130 m

Aktuelle vejr

Denne rapport blev lavet for 58 minutter siden, kl. 02:53 UTC
Vind 11 kt fra nord
Temperatur 27°C
Fugtighed 28%
Tryk 1019 hPa
Sigt: 16.1 km
skyfri

METAR: KSEA 230253Z 35011KT 10SM CLR 27/07 A3010 RMK AO2 SLP196 T02720072 56006

Tid: 20:51 (03:51 UTC)

Vejrudsigter

Denne rapport blev lavet for 51 minutter siden, kl. 03:00 UTC
Foreløbig gælder fra 23 på 03 UTC til 24 på 06 UTC
Vind 8 kt fra nord
Sigt: 10 km
skyfri
Fra 23 på 0400 UTC
Vind 5 kt fra nordnordøst
Sigt: 10 km
skyfri
Fra 23 på 1800 UTC
Vind 8 kt fra vestnordvest
Sigt: 10 km
skyfri
Fra 24 på 0400 UTC
Vind 6 kt fra nordnordøst
Sigt: 10 km
skyfri

TAF: KSEA 230300Z 2303/2406 35008KT P6SM SKC FM230400 02005KT P6SM SKC FM231800 30008KT P6SM SKC FM240400 02006KT P6SM SKC

Vejrobservationer og prognoser fra mere end 4000 lufthavne (METAR og TAF).

De gule og røde prikker repræsenterer de meteorologiske stationer.

Flyt musen over at se navnet på stationen.

Så klik over at se vejr observationer og prognoser.

At skifte det kort: Klik på de grønne knapper med et sort kors for at zoome ind; på den grønne knap med en bindestreg for at zoome ud; eller på de grønne pile for tilstødende kort.


METAR-TAF: